createdAt,value
2022-10-21T00:00:58.115Z,36.35
2022-10-21T00:03:38.286Z,36.53
2022-10-21T00:06:07.650Z,35.70
2022-10-21T00:08:35.725Z,37.30
2022-10-21T00:11:06.467Z,37.80
2022-10-21T00:13:35.818Z,37.60
2022-10-21T00:16:08.290Z,36.60
2022-10-21T00:18:38.688Z,38.53
2022-10-21T00:21:09.069Z,37.75
2022-10-21T00:23:36.944Z,36.25
2022-10-21T00:26:04.863Z,35.60
2022-10-21T00:28:33.199Z,35.53
2022-10-21T00:31:00.951Z,35.53
2022-10-21T00:33:29.197Z,35.30
2022-10-21T00:36:03.850Z,36.38
2022-10-21T00:38:33.124Z,34.38
2022-10-21T00:41:01.487Z,35.67
2022-10-21T00:43:29.792Z,34.40
2022-10-21T00:46:03.657Z,34.05
2022-10-21T00:48:31.571Z,32.72
2022-10-21T00:51:12.968Z,34.72
2022-10-21T00:53:44.026Z,34.30
2022-10-21T00:56:20.990Z,33.33
2022-10-21T00:58:49.122Z,35.30
2022-10-21T01:01:19.389Z,33.10
2022-10-21T01:03:50.676Z,34.03
2022-10-21T01:06:23.083Z,31.17
2022-10-21T01:08:54.523Z,32.50
2022-10-21T01:11:23.583Z,30.80
2022-10-21T01:14:18.347Z,30.42
2022-10-21T01:16:57.591Z,30.40
2022-10-21T01:19:52.001Z,30.00
2022-10-21T01:22:27.608Z,30.77
2022-10-21T01:25:31.791Z,29.95
2022-10-21T01:28:24.461Z,30.48
2022-10-21T01:30:55.687Z,31.15
2022-10-21T01:33:38.058Z,28.05
2022-10-21T01:36:26.277Z,28.55
2022-10-21T01:39:08.245Z,29.98
2022-10-21T01:41:36.009Z,29.08
2022-10-21T01:44:57.630Z,29.52
2022-10-21T01:47:53.201Z,30.92
2022-10-21T01:50:27.513Z,30.75
2022-10-21T01:53:03.006Z,31.40
2022-10-21T01:55:32.651Z,29.83
2022-10-21T01:58:11.853Z,30.27
2022-10-21T02:00:41.429Z,29.65
2022-10-21T02:03:14.386Z,28.17
2022-10-21T02:05:42.371Z,30.52
2022-10-21T02:08:10.339Z,29.42
2022-10-21T02:10:43.329Z,30.67
2022-10-21T02:13:14.969Z,29.40
2022-10-21T02:15:43.734Z,27.55
2022-10-21T02:18:26.614Z,27.40
2022-10-21T02:20:59.474Z,27.77
2022-10-21T02:23:51.207Z,28.73
2022-10-21T02:26:19.654Z,26.70
2022-10-21T02:28:48.097Z,26.33
2022-10-21T02:31:39.907Z,27.42
2022-10-21T02:34:31.462Z,26.65
2022-10-21T02:37:23.764Z,27.23
2022-10-21T02:40:32.759Z,28.02
2022-10-21T02:43:16.620Z,26.17
2022-10-21T02:48:14.448Z,26.73
2022-10-21T02:50:42.384Z,27.05
2022-10-21T02:53:11.683Z,24.95
2022-10-21T02:55:39.438Z,24.58
2022-10-21T02:58:07.378Z,25.10
2022-10-21T03:00:35.215Z,24.83
2022-10-21T03:03:02.854Z,24.67
2022-10-21T03:08:03.186Z,25.23
2022-10-21T03:10:31.156Z,25.02
2022-10-21T03:12:58.706Z,25.50
2022-10-21T03:15:26.724Z,25.05
2022-10-21T03:17:54.285Z,24.05
2022-10-21T03:20:22.186Z,23.63
2022-10-21T03:22:49.729Z,24.40
2022-10-21T03:25:17.817Z,24.30
2022-10-21T03:27:46.840Z,24.45
2022-10-21T03:30:14.934Z,23.52
2022-10-21T03:32:42.524Z,23.92
2022-10-21T03:35:10.434Z,25.55
2022-10-21T03:37:38.163Z,25.05
2022-10-21T03:40:09.984Z,23.75
2022-10-21T03:42:40.502Z,25.25
2022-10-21T03:45:09.271Z,24.35
2022-10-21T03:47:36.903Z,24.17
2022-10-21T03:50:08.891Z,24.60
2022-10-21T03:52:40.547Z,24.85
2022-10-21T03:55:08.869Z,26.00
2022-10-21T03:57:36.511Z,24.40
2022-10-21T04:00:06.152Z,23.45
2022-10-21T04:02:40.753Z,24.42
2022-10-21T04:05:09.529Z,23.00
2022-10-21T04:07:37.204Z,22.45
2022-10-21T04:10:06.342Z,22.15
2022-10-21T04:12:33.959Z,23.77
2022-10-21T04:15:02.230Z,22.75
2022-10-21T04:17:29.876Z,23.05
2022-10-21T04:19:57.702Z,23.60
2022-10-21T04:22:25.326Z,23.38
2022-10-21T04:24:53.082Z,22.77
2022-10-21T04:27:20.692Z,24.20
2022-10-21T04:29:48.897Z,24.42
2022-10-21T04:32:16.438Z,24.83
2022-10-21T04:34:45.556Z,25.30
2022-10-21T04:37:13.394Z,24.60
2022-10-21T04:39:41.167Z,24.63
2022-10-21T04:42:08.931Z,24.80
2022-10-21T04:44:39.695Z,24.23
2022-10-21T04:47:07.932Z,25.58
2022-10-21T04:49:35.677Z,25.20
2022-10-21T04:52:03.427Z,23.55
2022-10-21T04:54:31.258Z,24.83
2022-10-21T04:56:58.841Z,25.30
2022-10-21T04:59:26.724Z,24.48
2022-10-21T05:01:54.350Z,24.45
2022-10-21T05:04:22.089Z,25.00
2022-10-21T05:06:49.603Z,23.73
2022-10-21T05:09:17.615Z,24.13
2022-10-21T05:11:45.308Z,24.08
2022-10-21T05:14:13.102Z,24.40
2022-10-21T05:16:40.837Z,24.15
2022-10-21T05:19:08.634Z,23.60
2022-10-21T05:24:05.075Z,23.85
2022-10-21T05:26:32.689Z,23.73
2022-10-21T05:29:00.518Z,24.08
2022-10-21T05:31:28.279Z,25.30
2022-10-21T05:33:56.604Z,23.63
2022-10-21T05:36:24.366Z,24.02
2022-10-21T05:38:52.367Z,22.58
2022-10-21T05:41:20.107Z,22.88
2022-10-21T05:43:47.874Z,23.42
2022-10-21T05:46:15.401Z,23.02
2022-10-21T05:48:43.219Z,20.77
2022-10-21T05:51:11.021Z,22.20
2022-10-21T05:53:39.876Z,21.70
2022-10-21T05:56:08.510Z,20.90
2022-10-21T05:58:36.739Z,21.02
2022-10-21T06:01:04.757Z,20.35
2022-10-21T06:03:34.970Z,20.70
2022-10-21T06:06:05.249Z,19.42
2022-10-21T06:08:35.912Z,19.02
2022-10-21T06:11:06.929Z,18.83
2022-10-21T06:13:35.589Z,18.48
2022-10-21T06:18:31.978Z,19.42
2022-10-21T06:21:00.241Z,18.38
2022-10-21T06:23:28.541Z,17.40
2022-10-21T06:26:14.269Z,20.05
2022-10-21T06:28:43.478Z,18.58
2022-10-21T06:31:14.551Z,17.50
2022-10-21T06:33:42.444Z,18.60
2022-10-21T06:36:10.501Z,18.33
2022-10-21T06:38:38.784Z,18.70
2022-10-21T06:41:12.333Z,18.95
2022-10-21T06:43:42.423Z,19.52
2022-10-21T06:46:12.774Z,18.67
2022-10-21T06:48:41.054Z,20.08
2022-10-21T06:51:12.667Z,19.88
2022-10-21T06:53:40.831Z,18.77
2022-10-21T06:56:12.633Z,18.40
2022-10-21T06:58:43.476Z,17.88
2022-10-21T07:01:27.394Z,17.73
2022-10-21T07:04:01.355Z,17.27
2022-10-21T07:06:29.635Z,17.83
2022-10-21T07:08:58.639Z,17.10
2022-10-21T07:11:28.197Z,14.95
2022-10-21T07:13:56.666Z,15.93
2022-10-21T07:16:29.991Z,16.60
2022-10-21T07:18:58.122Z,15.10
2022-10-21T07:21:28.948Z,14.57
2022-10-21T07:23:59.237Z,14.77
2022-10-21T07:26:29.286Z,14.68
2022-10-21T07:28:59.737Z,13.65
2022-10-21T07:31:28.776Z,13.40
2022-10-21T07:33:56.714Z,13.50
2022-10-21T07:36:26.903Z,12.90
2022-10-21T07:38:57.234Z,13.00
2022-10-21T07:41:30.614Z,12.35
2022-10-21T07:43:59.423Z,13.15
2022-10-21T07:46:27.399Z,12.80
2022-10-21T07:48:56.297Z,12.35
2022-10-21T07:51:28.574Z,11.80
2022-10-21T07:54:00.258Z,11.00
2022-10-21T07:56:41.248Z,11.23
2022-10-21T07:59:12.849Z,10.70
2022-10-21T08:01:44.863Z,10.18
2022-10-21T08:04:15.936Z,9.57
2022-10-21T08:06:47.029Z,9.52
2022-10-21T08:09:16.039Z,10.50
2022-10-21T08:11:43.957Z,9.75
2022-10-21T08:14:13.049Z,9.60
2022-10-21T08:16:41.471Z,9.65
2022-10-21T08:19:17.104Z,9.05
2022-10-21T08:21:44.860Z,8.27
2022-10-21T08:24:12.748Z,8.93
2022-10-21T08:26:40.612Z,8.20
2022-10-21T08:29:08.445Z,7.97
2022-10-21T08:31:36.121Z,7.93
2022-10-21T08:34:03.927Z,8.00
2022-10-21T08:36:31.573Z,8.45
2022-10-21T08:38:59.741Z,8.30
2022-10-21T08:41:30.592Z,7.85
2022-10-21T08:44:17.711Z,7.85
2022-10-21T08:46:56.042Z,7.47
2022-10-21T08:49:37.337Z,7.20
2022-10-21T08:52:15.453Z,7.32
2022-10-21T08:54:50.215Z,7.05
2022-10-21T08:57:19.890Z,7.65
2022-10-21T08:59:48.174Z,8.10
2022-10-21T09:02:46.948Z,7.00
2022-10-21T09:05:40.232Z,7.40
2022-10-21T09:08:31.387Z,7.05
2022-10-21T09:11:02.528Z,7.32
2022-10-21T09:13:58.490Z,7.28
2022-10-21T09:16:48.383Z,7.20
2022-10-21T09:19:22.472Z,7.85
2022-10-21T09:22:34.666Z,7.15
2022-10-21T09:25:21.010Z,7.75
2022-10-21T09:27:55.921Z,6.85
2022-10-21T09:30:25.264Z,7.20
2022-10-21T09:32:58.801Z,6.82
2022-10-21T09:35:35.114Z,7.00
2022-10-21T09:38:21.840Z,7.10
2022-10-21T09:40:52.707Z,7.10
2022-10-21T09:43:24.761Z,7.32
2022-10-21T09:45:52.864Z,7.20
2022-10-21T09:48:33.701Z,7.18
2022-10-21T09:51:14.416Z,7.07
2022-10-21T09:53:54.029Z,6.90
2022-10-21T09:56:31.375Z,6.65
2022-10-21T09:59:14.000Z,7.40
2022-10-21T10:01:44.662Z,8.03
2022-10-21T10:04:31.678Z,7.45
2022-10-21T10:07:19.610Z,7.60
2022-10-21T10:09:48.305Z,8.10
2022-10-21T10:12:21.521Z,8.18
2022-10-21T10:14:49.637Z,7.40
2022-10-21T10:17:26.121Z,7.38
2022-10-21T10:20:08.208Z,6.43
2022-10-21T10:22:45.265Z,6.60
2022-10-21T10:25:22.739Z,7.03
2022-10-21T10:27:55.715Z,7.63
2022-10-21T10:30:25.551Z,6.82
2022-10-21T10:32:56.113Z,7.05
2022-10-21T10:35:33.733Z,6.20
2022-10-21T10:38:02.737Z,6.55
2022-10-21T10:40:41.923Z,6.38
2022-10-21T10:43:29.373Z,6.63
2022-10-21T10:46:03.941Z,6.53
2022-10-21T10:48:37.067Z,7.07
2022-10-21T10:51:25.664Z,6.93
2022-10-21T10:54:18.298Z,6.00
2022-10-21T10:56:54.932Z,6.57
2022-10-21T10:59:30.925Z,6.22
2022-10-21T11:02:07.554Z,6.35
2022-10-21T11:04:46.915Z,6.82
2022-10-21T11:07:47.479Z,6.07
2022-10-21T11:10:53.404Z,6.63
2022-10-21T11:13:23.703Z,7.45
2022-10-21T11:16:18.340Z,7.22
2022-10-21T11:19:22.815Z,7.57
2022-10-21T11:22:05.102Z,7.30
2022-10-21T11:25:09.339Z,6.88
2022-10-21T11:27:37.169Z,7.53
2022-10-21T11:30:13.643Z,7.85
2022-10-21T11:33:02.260Z,8.65
2022-10-21T11:35:42.086Z,8.68
2022-10-21T11:38:28.077Z,8.18
2022-10-21T11:41:21.862Z,7.75
2022-10-21T11:44:00.495Z,8.23
2022-10-21T11:46:47.006Z,8.38
2022-10-21T11:49:37.231Z,8.18
2022-10-21T11:52:39.062Z,8.95
2022-10-21T11:55:28.084Z,9.32
2022-10-21T11:58:32.849Z,8.57
2022-10-21T12:01:09.617Z,8.85
2022-10-21T12:03:58.320Z,9.13
2022-10-21T12:06:34.844Z,8.38
2022-10-21T12:09:17.918Z,9.68
2022-10-21T12:12:00.972Z,9.10
2022-10-21T12:14:50.479Z,9.00
2022-10-21T12:17:21.513Z,9.30
2022-10-21T12:20:24.000Z,9.63
2022-10-21T12:23:04.831Z,9.68
2022-10-21T12:25:32.653Z,14.07
2022-10-21T12:28:11.721Z,12.95
2022-10-21T12:30:54.486Z,10.38
2022-10-21T12:33:27.899Z,10.20
2022-10-21T12:36:14.324Z,10.20
2022-10-21T12:38:53.555Z,10.30
2022-10-21T12:41:24.531Z,9.52
2022-10-21T12:43:57.876Z,9.90
2022-10-21T12:46:29.269Z,9.80
2022-10-21T12:49:00.841Z,9.52
2022-10-21T12:51:31.228Z,9.07
2022-10-21T12:54:12.842Z,8.90
2022-10-21T12:56:47.135Z,8.63
2022-10-21T12:59:34.890Z,8.85
2022-10-21T13:02:05.455Z,9.38
2022-10-21T13:04:33.171Z,8.50
2022-10-21T13:07:15.829Z,9.32
2022-10-21T13:09:53.795Z,8.70
2022-10-21T13:12:24.405Z,9.45
2022-10-21T13:14:53.274Z,8.82
2022-10-21T13:17:23.694Z,9.70
2022-10-21T13:19:51.380Z,9.68
2022-10-21T13:22:32.886Z,8.88
2022-10-21T13:25:26.049Z,8.77
2022-10-21T13:27:53.745Z,10.00
2022-10-21T13:30:39.292Z,10.15
2022-10-21T13:33:20.249Z,9.50
2022-10-21T13:35:51.112Z,9.07
2022-10-21T13:38:29.571Z,9.10
2022-10-21T13:41:02.357Z,8.93
2022-10-21T13:43:44.724Z,8.85
2022-10-21T13:46:36.779Z,10.10
2022-10-21T13:51:53.014Z,9.27
2022-10-21T13:54:20.963Z,9.68
2022-10-21T13:56:49.046Z,10.02
2022-10-21T13:59:30.149Z,9.57
2022-10-21T14:01:58.560Z,9.95
2022-10-21T14:04:31.384Z,10.13
2022-10-21T14:07:08.677Z,10.48
2022-10-21T14:09:45.236Z,10.65
2022-10-21T14:12:44.153Z,10.45
2022-10-21T14:15:19.618Z,10.65
2022-10-21T14:17:58.121Z,9.93
2022-10-21T14:20:34.024Z,9.18
2022-10-21T14:23:08.780Z,9.85
2022-10-21T14:25:36.714Z,9.90
2022-10-21T14:28:05.387Z,9.88
2022-10-21T14:30:36.826Z,11.70
2022-10-21T14:33:08.462Z,11.45
2022-10-21T14:35:36.245Z,12.68
2022-10-21T14:38:24.600Z,12.02
2022-10-21T14:41:05.425Z,11.65
2022-10-21T14:43:39.528Z,10.95
2022-10-21T14:46:09.689Z,11.57
2022-10-21T14:48:46.785Z,11.38
2022-10-21T14:51:21.173Z,11.80
2022-10-21T14:53:51.274Z,12.65
2022-10-21T14:56:29.761Z,13.23
2022-10-21T14:59:00.140Z,14.30
2022-10-21T15:01:28.125Z,14.05
2022-10-21T15:03:59.476Z,14.93
2022-10-21T15:06:34.777Z,14.75
2022-10-21T15:09:11.639Z,14.65
2022-10-21T15:11:41.870Z,14.50
2022-10-21T15:14:28.705Z,14.70
2022-10-21T15:16:59.331Z,13.85
2022-10-21T15:19:40.522Z,13.13
2022-10-21T15:22:29.739Z,12.32
2022-10-21T15:25:13.801Z,11.38
2022-10-21T15:27:43.005Z,10.63
2022-10-21T15:30:13.855Z,10.77
2022-10-21T15:32:41.477Z,9.55
2022-10-21T15:35:20.897Z,9.32
2022-10-21T15:37:53.667Z,9.50
2022-10-21T15:40:22.844Z,9.18
2022-10-21T15:42:50.609Z,9.00
2022-10-21T15:45:24.088Z,8.50
2022-10-21T15:47:53.438Z,8.35
2022-10-21T15:50:26.799Z,8.48
2022-10-21T15:55:23.416Z,8.02
2022-10-21T15:57:51.014Z,8.82
2022-10-21T16:00:22.502Z,9.13
2022-10-21T16:02:51.898Z,10.10
2022-10-21T16:05:21.523Z,12.80
2022-10-21T16:07:49.181Z,14.98
2022-10-21T16:10:35.223Z,16.95
2022-10-21T16:13:03.843Z,16.20
2022-10-21T16:15:31.670Z,14.35
2022-10-21T16:18:00.002Z,14.43
2022-10-21T16:20:30.544Z,13.13
2022-10-21T16:23:02.187Z,12.55
2022-10-21T16:25:32.007Z,12.20
2022-10-21T16:28:00.254Z,11.55
2022-10-21T16:30:33.729Z,11.15
2022-10-21T16:33:01.403Z,10.85
2022-10-21T16:35:29.264Z,10.90
2022-10-21T16:37:56.981Z,11.30
2022-10-21T16:40:25.991Z,10.32
2022-10-21T16:42:54.133Z,10.82
2022-10-21T16:45:24.310Z,10.57
2022-10-21T16:47:56.504Z,10.48
2022-10-21T16:50:41.197Z,10.38
2022-10-21T16:53:14.613Z,10.57
2022-10-21T16:55:42.649Z,11.15
2022-10-21T16:58:10.200Z,10.32
2022-10-21T17:00:38.139Z,10.90
2022-10-21T17:03:05.860Z,11.32
2022-10-21T17:08:06.683Z,11.30
2022-10-21T17:10:34.507Z,10.57
2022-10-21T17:13:02.105Z,10.40
2022-10-21T17:15:29.906Z,11.07
2022-10-21T17:17:57.712Z,11.60
2022-10-21T17:20:30.230Z,12.48
2022-10-21T17:22:59.511Z,11.52
2022-10-21T17:25:29.734Z,13.88
2022-10-21T17:27:58.166Z,14.18
2022-10-21T17:30:26.716Z,13.57
2022-10-21T17:32:54.384Z,14.02
2022-10-21T17:35:22.542Z,15.50
2022-10-21T17:37:51.001Z,15.85
2022-10-21T17:40:23.260Z,16.85
2022-10-21T17:42:50.938Z,18.08
2022-10-21T17:45:20.441Z,17.60
2022-10-21T17:47:48.829Z,19.10
2022-10-21T17:50:23.254Z,18.15
2022-10-21T17:52:52.255Z,17.75
2022-10-21T17:55:20.720Z,21.17
2022-10-21T17:57:48.556Z,19.88
2022-10-21T18:00:16.441Z,40.70
2022-10-21T18:02:44.105Z,46.38
2022-10-21T18:05:11.958Z,42.40
2022-10-21T18:07:39.824Z,36.78
2022-10-21T18:10:08.704Z,31.52
2022-10-21T18:12:37.098Z,29.70
2022-10-21T18:15:05.698Z,28.70
2022-10-21T18:17:34.515Z,34.13
2022-10-21T18:20:02.294Z,34.42
2022-10-21T18:22:30.135Z,37.40
2022-10-21T18:24:57.970Z,37.38
2022-10-21T18:27:25.550Z,37.78
2022-10-21T18:29:53.259Z,33.83
2022-10-21T18:32:21.035Z,33.92
2022-10-21T18:34:48.784Z,36.15
2022-10-21T18:37:16.444Z,34.10
2022-10-21T18:39:44.214Z,32.45
2022-10-21T18:42:11.943Z,33.65
2022-10-21T18:44:39.839Z,34.90
2022-10-21T18:47:07.433Z,36.13
2022-10-21T18:49:35.770Z,36.35
2022-10-21T18:52:03.511Z,37.72
2022-10-21T18:54:31.293Z,35.50
2022-10-21T18:56:58.817Z,34.20
2022-10-21T18:59:26.571Z,38.75
2022-10-21T19:01:54.975Z,36.67
2022-10-21T19:04:22.755Z,39.05
2022-10-21T19:06:50.472Z,36.63
2022-10-21T19:09:24.348Z,37.30
2022-10-21T19:11:53.209Z,38.05
2022-10-21T19:14:21.336Z,37.80
2022-10-21T19:16:49.673Z,36.75
2022-10-21T19:19:17.852Z,36.95
2022-10-21T19:21:45.451Z,36.45
2022-10-21T19:24:13.482Z,35.78
2022-10-21T19:26:42.806Z,35.88
2022-10-21T19:29:19.784Z,33.25
2022-10-21T19:34:28.396Z,35.97
2022-10-21T19:36:55.981Z,39.25
2022-10-21T19:39:23.836Z,39.92
2022-10-21T19:41:51.387Z,41.55
2022-10-21T19:44:19.348Z,38.60
2022-10-21T19:46:47.020Z,36.88
2022-10-21T19:49:15.411Z,36.35
2022-10-21T19:51:43.153Z,34.83
2022-10-21T19:54:13.271Z,35.55
2022-10-21T19:56:41.226Z,33.85
2022-10-21T19:59:09.868Z,34.33
2022-10-21T20:01:37.810Z,34.65
2022-10-21T20:04:06.038Z,33.88
2022-10-21T20:06:36.886Z,33.05
2022-10-21T20:09:11.575Z,33.15
2022-10-21T20:11:40.623Z,32.75
2022-10-21T20:14:11.575Z,31.67
2022-10-21T20:16:42.276Z,29.58
2022-10-21T20:19:12.667Z,30.95
2022-10-21T20:21:41.015Z,28.70
2022-10-21T20:24:09.913Z,29.08
2022-10-21T20:29:11.208Z,31.63
2022-10-21T20:31:38.840Z,31.30
2022-10-21T20:34:06.668Z,31.23
2022-10-21T20:36:34.564Z,32.17
2022-10-21T20:39:03.170Z,31.48
2022-10-21T20:41:34.697Z,30.83
2022-10-21T20:44:04.510Z,31.63
2022-10-21T20:46:35.124Z,30.10
2022-10-21T20:49:07.065Z,30.45
2022-10-21T20:51:36.577Z,31.52
2022-10-21T20:54:07.174Z,30.25
2022-10-21T20:56:37.325Z,29.92
2022-10-21T20:59:06.647Z,29.38
2022-10-21T21:01:37.030Z,28.70
2022-10-21T21:04:10.963Z,28.83
2022-10-21T21:06:48.141Z,29.13
2022-10-21T21:12:07.542Z,25.75
2022-10-21T21:14:35.509Z,27.83
2022-10-21T21:17:03.726Z,23.73
2022-10-21T21:19:33.233Z,25.13
2022-10-21T21:22:00.905Z,25.75
2022-10-21T21:24:28.705Z,22.10
2022-10-21T21:26:56.408Z,20.90
2022-10-21T21:29:24.298Z,20.75
2022-10-21T21:31:52.032Z,19.70
2022-10-21T21:34:20.046Z,19.13
2022-10-21T21:36:47.681Z,18.40
2022-10-21T21:41:48.337Z,17.35
2022-10-21T21:44:16.090Z,16.40
2022-10-21T21:46:43.748Z,17.58
2022-10-21T21:49:11.630Z,17.70
2022-10-21T21:51:39.222Z,16.08
2022-10-21T21:54:09.933Z,16.35
2022-10-21T21:56:37.609Z,16.80
2022-10-21T21:59:05.404Z,17.48
2022-10-21T22:01:33.156Z,16.13
2022-10-21T22:04:01.566Z,17.60
2022-10-21T22:06:32.993Z,16.40
2022-10-21T22:09:01.740Z,16.30
2022-10-21T22:11:33.386Z,16.15
2022-10-21T22:14:02.491Z,16.40
2022-10-21T22:16:30.632Z,17.25
2022-10-21T22:19:00.065Z,17.33
2022-10-21T22:21:29.769Z,17.42
2022-10-21T22:23:57.734Z,18.10
2022-10-21T22:26:26.934Z,18.05
2022-10-21T22:28:55.713Z,18.35
2022-10-21T22:31:29.027Z,18.60
2022-10-21T22:34:00.784Z,18.17
2022-10-21T22:36:28.902Z,18.42
2022-10-21T22:38:57.380Z,18.75
2022-10-21T22:41:25.356Z,19.20
2022-10-21T22:43:53.203Z,19.23
2022-10-21T22:46:33.535Z,19.83
2022-10-21T22:49:06.553Z,19.10
2022-10-21T22:51:34.817Z,20.02
2022-10-21T22:54:03.443Z,20.02
2022-10-21T22:56:32.177Z,21.33
2022-10-21T22:59:00.153Z,20.13
2022-10-21T23:01:30.378Z,20.25
2022-10-21T23:04:02.797Z,20.15
2022-10-21T23:06:32.179Z,19.98
2022-10-21T23:09:00.683Z,21.55
2022-10-21T23:11:29.345Z,19.75
2022-10-21T23:14:03.414Z,21.45
2022-10-21T23:16:36.174Z,20.60
2022-10-21T23:19:05.138Z,21.30
2022-10-21T23:21:33.946Z,21.40
2022-10-21T23:24:01.810Z,20.55
2022-10-21T23:26:29.388Z,21.08
2022-10-21T23:28:57.215Z,20.83
2022-10-21T23:31:24.814Z,21.42
2022-10-21T23:33:52.573Z,21.15
2022-10-21T23:36:20.239Z,23.13
2022-10-21T23:38:48.121Z,21.80
2022-10-21T23:41:15.772Z,21.48
2022-10-21T23:43:43.603Z,22.35
2022-10-21T23:46:11.233Z,23.33
2022-10-21T23:48:39.048Z,22.00
2022-10-21T23:51:06.679Z,22.73
2022-10-21T23:53:34.682Z,21.73
2022-10-21T23:56:02.274Z,22.95
2022-10-21T23:58:30.306Z,22.02
